sensor_id;sensor_type;location;lat;lon;timestamp;pressure;altitude;pressure_sealevel;temperature;humidity
63096;BME280;49184;55.596;37.770;2022-08-14T00:00:36;100030.66;;;19.44;58.58
63096;BME280;49184;55.596;37.770;2022-08-14T00:03:59;100090.59;;;19.77;57.44
63096;BME280;49184;55.596;37.770;2022-08-14T00:06:25;100044.25;;;19.49;59.44
63096;BME280;49184;55.596;37.770;2022-08-14T00:09:23;100128.72;;;19.96;61.61
63096;BME280;49184;55.596;37.770;2022-08-14T00:11:49;100098.84;;;19.61;62.00
63096;BME280;49184;55.596;37.770;2022-08-14T00:14:15;100131.38;;;19.77;62.70
63096;BME280;49184;55.596;37.770;2022-08-14T00:16:45;100098.91;;;19.49;62.45
63096;BME280;49184;55.596;37.770;2022-08-14T00:19:42;100059.56;;;19.15;63.09
63096;BME280;49184;55.596;37.770;2022-08-14T00:22:31;100097.34;;;19.36;61.76
63096;BME280;49184;55.596;37.770;2022-08-14T00:25:13;100109.66;;;19.51;63.29
63096;BME280;49184;55.596;37.770;2022-08-14T00:28:06;100126.34;;;19.66;59.47
63096;BME280;49184;55.596;37.770;2022-08-14T00:32:02;100043.00;;;19.19;58.74
63096;BME280;49184;55.596;37.770;2022-08-14T00:34:29;100066.59;;;19.41;57.76
63096;BME280;49184;55.596;37.770;2022-08-14T00:37:29;100131.22;;;19.85;58.11
63096;BME280;49184;55.596;37.770;2022-08-14T00:40:33;100120.59;;;19.87;59.87
63096;BME280;49184;55.596;37.770;2022-08-14T00:49:37;100118.84;;;19.67;59.47
63096;BME280;49184;55.596;37.770;2022-08-14T00:52:24;100055.09;;;19.27;59.24
63096;BME280;49184;55.596;37.770;2022-08-14T00:55:09;100025.13;;;19.16;58.76
63096;BME280;49184;55.596;37.770;2022-08-14T00:57:45;100104.38;;;19.74;59.21
63096;BME280;49184;55.596;37.770;2022-08-14T01:00:52;100075.31;;;19.55;59.05
63096;BME280;49184;55.596;37.770;2022-08-14T01:03:44;100121.03;;;19.89;58.60
63096;BME280;49184;55.596;37.770;2022-08-14T01:06:14;100115.94;;;19.91;58.65
63096;BME280;49184;55.596;37.770;2022-08-14T01:09:18;100019.91;;;19.43;58.27
63096;BME280;49184;55.596;37.770;2022-08-14T01:14:41;100088.53;;;19.74;59.05
63096;BME280;49184;55.596;37.770;2022-08-14T01:17:23;100088.06;;;19.72;58.93
63096;BME280;49184;55.596;37.770;2022-08-14T01:25:26;100119.06;;;19.90;59.66
63096;BME280;49184;55.596;37.770;2022-08-14T01:34:19;100077.38;;;19.58;60.14
63096;BME280;49184;55.596;37.770;2022-08-14T01:36:49;100032.13;;;19.26;59.82
63096;BME280;49184;55.596;37.770;2022-08-14T01:39:48;100130.44;;;19.85;59.19
63096;BME280;49184;55.596;37.770;2022-08-14T01:42:22;100089.38;;;19.62;59.88
63096;BME280;49184;55.596;37.770;2022-08-14T01:51:46;100039.03;;;19.32;59.07
63096;BME280;49184;55.596;37.770;2022-08-14T01:54:44;100054.59;;;19.37;59.55
63096;BME280;49184;55.596;37.770;2022-08-14T01:57:20;100038.47;;;19.27;60.12
63096;BME280;49184;55.596;37.770;2022-08-14T01:59:47;100080.28;;;19.49;60.65
63096;BME280;49184;55.596;37.770;2022-08-14T02:02:42;100142.84;;;19.75;61.32
63096;BME280;49184;55.596;37.770;2022-08-14T02:05:12;100129.84;;;19.63;61.70
63096;BME280;49184;55.596;37.770;2022-08-14T02:08:03;100104.88;;;19.35;62.09
63096;BME280;49184;55.596;37.770;2022-08-14T02:14:06;100075.63;;;19.10;63.21
63096;BME280;49184;55.596;37.770;2022-08-14T02:16:40;100058.81;;;18.90;63.01
63096;BME280;49184;55.596;37.770;2022-08-14T02:25:31;100158.44;;;19.39;63.14
63096;BME280;49184;55.596;37.770;2022-08-14T02:29:07;100156.63;;;19.31;62.73
63096;BME280;49184;55.596;37.770;2022-08-14T02:34:51;100099.56;;;18.90;62.65
63096;BME280;49184;55.596;37.770;2022-08-14T02:37:28;100129.91;;;18.98;63.56
63096;BME280;49184;55.596;37.770;2022-08-14T02:40:24;100161.03;;;19.20;63.43
63096;BME280;49184;55.596;37.770;2022-08-14T02:47:04;100166.25;;;19.09;64.29
63096;BME280;49184;55.596;37.770;2022-08-14T02:58:06;100111.94;;;18.68;64.36
63096;BME280;49184;55.596;37.770;2022-08-14T03:07:27;100172.66;;;18.97;63.79
63096;BME280;49184;55.596;37.770;2022-08-14T03:10:40;100097.88;;;18.48;63.70
63096;BME280;49184;55.596;37.770;2022-08-14T03:21:24;100169.50;;;19.11;63.70
63096;BME280;49184;55.596;37.770;2022-08-14T03:23:53;100181.03;;;19.13;63.45
63096;BME280;49184;55.596;37.770;2022-08-14T03:30:36;100157.47;;;19.07;64.31
63096;BME280;49184;55.596;37.770;2022-08-14T03:37:35;100167.97;;;19.14;64.54
63096;BME280;49184;55.596;37.770;2022-08-14T03:56:49;100139.56;;;19.17;65.14
63096;BME280;49184;55.596;37.770;2022-08-14T04:02:41;100127.78;;;19.20;65.11
63096;BME280;49184;55.596;37.770;2022-08-14T04:05:10;100126.56;;;19.33;64.92
63096;BME280;49184;55.596;37.770;2022-08-14T04:08:07;100170.03;;;19.69;65.09
63096;BME280;49184;55.596;37.770;2022-08-14T04:10:54;100121.13;;;19.37;65.63
63096;BME280;49184;55.596;37.770;2022-08-14T04:13:25;100164.56;;;19.73;64.72
63096;BME280;49184;55.596;37.770;2022-08-14T04:19:38;100115.84;;;19.60;65.19
63096;BME280;49184;55.596;37.770;2022-08-14T04:25:24;100136.97;;;19.92;65.14
63096;BME280;49184;55.596;37.770;2022-08-14T04:28:16;100096.75;;;19.70;65.62
63096;BME280;49184;55.596;37.770;2022-08-14T04:30:42;100115.56;;;19.93;64.95
63096;BME280;49184;55.596;37.770;2022-08-14T04:33:09;100147.00;;;20.13;63.45
63096;BME280;49184;55.596;37.770;2022-08-14T04:36:06;100100.47;;;19.90;63.60
63096;BME280;49184;55.596;37.770;2022-08-14T04:42:07;100110.84;;;20.09;63.31
63096;BME280;49184;55.596;37.770;2022-08-14T04:48:38;100099.81;;;20.13;63.73
63096;BME280;49184;55.596;37.770;2022-08-14T05:17:52;100130.34;;;21.11;63.62
63096;BME280;49184;55.596;37.770;2022-08-14T05:25:13;100088.88;;;21.03;64.27
63096;BME280;49184;55.596;37.770;2022-08-14T05:27:44;100098.38;;;21.21;63.95
63096;BME280;49184;55.596;37.770;2022-08-14T05:30:31;100099.84;;;21.34;63.71
63096;BME280;49184;55.596;37.770;2022-08-14T05:33:24;100171.38;;;21.92;63.61
63096;BME280;49184;55.596;37.770;2022-08-14T05:36:04;100143.63;;;21.76;63.03
63096;BME280;49184;55.596;37.770;2022-08-14T05:39:04;100127.84;;;21.84;63.72
63096;BME280;49184;55.596;37.770;2022-08-14T05:41:30;100089.66;;;21.62;63.62
63096;BME280;49184;55.596;37.770;2022-08-14T05:50:04;100101.56;;;21.81;62.93
63096;BME280;49184;55.596;37.770;2022-08-14T05:55:10;100114.81;;;22.11;62.92
63096;BME280;49184;55.596;37.770;2022-08-14T05:58:20;100172.47;;;22.53;63.23
63096;BME280;49184;55.596;37.770;2022-08-14T06:31:59;100129.25;;;23.53;59.29
63096;BME280;49184;55.596;37.770;2022-08-14T06:50:41;100104.50;;;23.82;57.74
63096;BME280;49184;55.596;37.770;2022-08-14T07:09:46;100157.13;;;24.61;55.01
63096;BME280;49184;55.596;37.770;2022-08-14T07:26:00;100131.69;;;24.81;52.87
63096;BME280;49184;55.596;37.770;2022-08-14T07:29:03;100136.56;;;24.95;52.25
63096;BME280;49184;55.596;37.770;2022-08-14T07:31:38;100100.50;;;24.79;51.21
63096;BME280;49184;55.596;37.770;2022-08-14T07:34:53;100151.47;;;25.13;52.34
63096;BME280;49184;55.596;37.770;2022-08-14T07:40:37;100099.75;;;24.89;51.93
63096;BME280;49184;55.596;37.770;2022-08-14T07:43:28;100115.88;;;25.10;49.59
63096;BME280;49184;55.596;37.770;2022-08-14T07:45:57;100152.00;;;25.33;50.13
63096;BME280;49184;55.596;37.770;2022-08-14T07:48:41;100121.94;;;25.23;49.96
63096;BME280;49184;55.596;37.770;2022-08-14T07:51:14;100117.19;;;25.27;50.28
63096;BME280;49184;55.596;37.770;2022-08-14T07:53:51;100089.97;;;25.17;48.76
63096;BME280;49184;55.596;37.770;2022-08-14T07:56:20;100117.22;;;25.41;49.90
63096;BME280;49184;55.596;37.770;2022-08-14T07:58:53;100107.25;;;25.44;50.24
63096;BME280;49184;55.596;37.770;2022-08-14T08:04:54;100107.66;;;25.49;48.28
63096;BME280;49184;55.596;37.770;2022-08-14T08:07:26;100070.00;;;25.33;47.31
63096;BME280;49184;55.596;37.770;2022-08-14T08:15:20;100107.72;;;25.67;46.62
63096;BME280;49184;55.596;37.770;2022-08-14T08:17:47;100101.72;;;25.69;47.32
63096;BME280;49184;55.596;37.770;2022-08-14T08:20:34;100069.28;;;25.53;46.94
63096;BME280;49184;55.596;37.770;2022-08-14T08:26:27;100120.97;;;25.81;43.71
63096;BME280;49184;55.596;37.770;2022-08-14T08:32:55;100153.03;;;26.12;42.54
63096;BME280;49184;55.596;37.770;2022-08-14T08:35:25;100094.19;;;25.80;42.91
63096;BME280;49184;55.596;37.770;2022-08-14T08:39:14;100119.81;;;26.04;44.02
63096;BME280;49184;55.596;37.770;2022-08-14T08:41:46;100099.41;;;26.03;43.56
63096;BME280;49184;55.596;37.770;2022-08-14T08:44:28;100072.16;;;25.89;41.37
63096;BME280;49184;55.596;37.770;2022-08-14T08:50:26;100145.47;;;26.48;43.15
63096;BME280;49184;55.596;37.770;2022-08-14T08:53:03;100074.59;;;26.16;41.18
63096;BME280;49184;55.596;37.770;2022-08-14T08:55:48;100128.66;;;26.59;41.47
63096;BME280;49184;55.596;37.770;2022-08-14T08:58:24;100059.38;;;26.17;42.43
63096;BME280;49184;55.596;37.770;2022-08-14T09:00:56;100126.22;;;26.72;41.26
63096;BME280;49184;55.596;37.770;2022-08-14T09:04:04;100094.22;;;26.52;40.28
63096;BME280;49184;55.596;37.770;2022-08-14T09:14:02;100121.03;;;26.70;43.85
63096;BME280;49184;55.596;37.770;2022-08-14T09:16:29;100068.19;;;26.47;40.60
63096;BME280;49184;55.596;37.770;2022-08-14T09:18:55;100069.38;;;26.61;40.82
63096;BME280;49184;55.596;37.770;2022-08-14T09:21:47;100027.31;;;26.32;39.88
63096;BME280;49184;55.596;37.770;2022-08-14T09:24:14;100069.75;;;26.52;41.27
63096;BME280;49184;55.596;37.770;2022-08-14T09:30:00;100116.16;;;27.00;40.25
63096;BME280;49184;55.596;37.770;2022-08-14T09:32:38;100077.72;;;26.89;41.40
63096;BME280;49184;55.596;37.770;2022-08-14T09:54:19;100032.00;;;26.85;40.43
63096;BME280;49184;55.596;37.770;2022-08-14T09:57:00;100068.84;;;27.02;40.07
63096;BME280;49184;55.596;37.770;2022-08-14T09:59:53;100108.84;;;27.34;40.09
63096;BME280;49184;55.596;37.770;2022-08-14T10:02:52;100121.66;;;27.39;38.85
63096;BME280;49184;55.596;37.770;2022-08-14T10:13:22;100086.69;;;27.51;41.24
63096;BME280;49184;55.596;37.770;2022-08-14T10:24:50;100109.19;;;28.14;38.35
63096;BME280;49184;55.596;37.770;2022-08-14T10:27:17;100116.34;;;28.25;39.84
63096;BME280;49184;55.596;37.770;2022-08-14T10:30:33;100039.56;;;27.83;37.65
63096;BME280;49184;55.596;37.770;2022-08-14T10:37:35;100081.06;;;28.14;38.84
63096;BME280;49184;55.596;37.770;2022-08-14T10:46:25;100108.88;;;28.01;40.19
63096;BME280;49184;55.596;37.770;2022-08-14T10:52:58;100080.81;;;27.97;40.22
63096;BME280;49184;55.596;37.770;2022-08-14T10:55:56;100107.56;;;28.16;41.46
63096;BME280;49184;55.596;37.770;2022-08-14T11:02:26;100106.31;;;28.21;39.25
63096;BME280;49184;55.596;37.770;2022-08-14T11:05:46;100109.94;;;28.21;40.12
63096;BME280;49184;55.596;37.770;2022-08-14T11:08:15;100094.22;;;28.27;42.33
63096;BME280;49184;55.596;37.770;2022-08-14T11:10:53;100070.22;;;28.16;40.80
63096;BME280;49184;55.596;37.770;2022-08-14T11:16:13;100032.19;;;28.00;39.80
63096;BME280;49184;55.596;37.770;2022-08-14T11:18:45;100041.00;;;28.06;38.89
63096;BME280;49184;55.596;37.770;2022-08-14T11:21:16;100068.28;;;28.09;42.55
63096;BME280;49184;55.596;37.770;2022-08-14T11:23:45;100030.34;;;27.83;41.55
63096;BME280;49184;55.596;37.770;2022-08-14T11:26:14;100097.00;;;28.31;37.55
63096;BME280;49184;55.596;37.770;2022-08-14T11:29:24;100069.38;;;28.22;38.69
63096;BME280;49184;55.596;37.770;2022-08-14T11:31:53;100084.19;;;28.26;40.82
63096;BME280;49184;55.596;37.770;2022-08-14T11:34:47;100007.44;;;27.84;41.97
63096;BME280;49184;55.596;37.770;2022-08-14T11:37:13;100031.69;;;28.13;40.14
63096;BME280;49184;55.596;37.770;2022-08-14T11:39:49;100059.94;;;28.43;40.34
63096;BME280;49184;55.596;37.770;2022-08-14T11:42:35;100090.66;;;28.68;40.27
63096;BME280;49184;55.596;37.770;2022-08-14T11:45:15;100090.22;;;28.70;38.46
63096;BME280;49184;55.596;37.770;2022-08-14T11:51:28;100039.66;;;28.18;38.45
63096;BME280;49184;55.596;37.770;2022-08-14T11:57:19;100040.34;;;28.32;38.08
63096;BME280;49184;55.596;37.770;2022-08-14T11:59:45;100078.63;;;28.64;34.52
63096;BME280;49184;55.596;37.770;2022-08-14T12:02:32;100076.13;;;28.73;38.06
63096;BME280;49184;55.596;37.770;2022-08-14T12:04:58;99994.47;;;28.43;37.75
63096;BME280;49184;55.596;37.770;2022-08-14T12:10:25;100057.34;;;29.01;37.49
63096;BME280;49184;55.596;37.770;2022-08-14T12:12:56;100060.09;;;29.08;36.60
63096;BME280;49184;55.596;37.770;2022-08-14T12:15:35;99993.84;;;28.62;36.47
63096;BME280;49184;55.596;37.770;2022-08-14T12:22:01;100063.91;;;29.52;36.69
63096;BME280;49184;55.596;37.770;2022-08-14T12:24:28;100014.44;;;29.24;35.80
63096;BME280;49184;55.596;37.770;2022-08-14T12:26:55;99984.81;;;29.12;36.81
63096;BME280;49184;55.596;37.770;2022-08-14T12:29:37;100030.97;;;29.49;36.08
63096;BME280;49184;55.596;37.770;2022-08-14T12:36:18;100035.63;;;29.86;34.83
63096;BME280;49184;55.596;37.770;2022-08-14T12:39:22;100061.31;;;29.92;32.75
63096;BME280;49184;55.596;37.770;2022-08-14T12:45:44;100050.59;;;29.83;31.95
63096;BME280;49184;55.596;37.770;2022-08-14T12:48:17;99998.00;;;29.19;35.51
63096;BME280;49184;55.596;37.770;2022-08-14T12:50:50;100003.59;;;28.88;37.38
63096;BME280;49184;55.596;37.770;2022-08-14T12:53:47;100034.16;;;28.86;36.78
63096;BME280;49184;55.596;37.770;2022-08-14T12:57:33;99993.25;;;28.44;36.54
63096;BME280;49184;55.596;37.770;2022-08-14T13:00:25;100009.38;;;28.36;38.02
63096;BME280;49184;55.596;37.770;2022-08-14T13:02:57;99969.97;;;28.02;39.02
63096;BME280;49184;55.596;37.770;2022-08-14T13:08:22;99995.06;;;28.20;39.10
63096;BME280;49184;55.596;37.770;2022-08-14T13:11:16;100013.50;;;28.24;39.42
63096;BME280;49184;55.596;37.770;2022-08-14T13:13:44;100049.50;;;28.44;39.62
63096;BME280;49184;55.596;37.770;2022-08-14T13:16:12;100022.75;;;28.25;39.88
63096;BME280;49184;55.596;37.770;2022-08-14T13:18:42;100043.97;;;28.33;39.55
63096;BME280;49184;55.596;37.770;2022-08-14T13:21:17;100028.09;;;28.12;40.33
63096;BME280;49184;55.596;37.770;2022-08-14T13:23:44;100015.72;;;28.02;39.98
63096;BME280;49184;55.596;37.770;2022-08-14T13:26:23;99982.09;;;27.92;40.41
63096;BME280;49184;55.596;37.770;2022-08-14T13:29:22;100033.56;;;28.26;41.14
63096;BME280;49184;55.596;37.770;2022-08-14T13:31:53;100030.00;;;28.22;37.91
63096;BME280;49184;55.596;37.770;2022-08-14T13:38:06;100007.34;;;28.37;38.26
63096;BME280;49184;55.596;37.770;2022-08-14T13:41:00;100029.59;;;28.65;38.00
63096;BME280;49184;55.596;37.770;2022-08-14T13:43:30;99997.25;;;28.46;37.73
63096;BME280;49184;55.596;37.770;2022-08-14T13:45:57;99993.28;;;28.40;38.47
63096;BME280;49184;55.596;37.770;2022-08-14T13:48:25;99973.31;;;28.27;37.53
63096;BME280;49184;55.596;37.770;2022-08-14T13:50:54;99996.59;;;28.31;38.34
63096;BME280;49184;55.596;37.770;2022-08-14T13:53:24;99985.81;;;28.23;36.12
63096;BME280;49184;55.596;37.770;2022-08-14T13:55:57;99989.88;;;28.18;37.36
63096;BME280;49184;55.596;37.770;2022-08-14T13:58:25;100018.69;;;28.29;39.79
63096;BME280;49184;55.596;37.770;2022-08-14T14:01:17;100012.34;;;28.22;38.36
63096;BME280;49184;55.596;37.770;2022-08-14T14:04:47;99983.63;;;28.00;38.14
63096;BME280;49184;55.596;37.770;2022-08-14T14:07:17;99975.22;;;27.96;39.66
63096;BME280;49184;55.596;37.770;2022-08-14T14:09:54;99975.38;;;27.82;39.97
63096;BME280;49184;55.596;37.770;2022-08-14T14:12:48;100013.72;;;28.03;39.16
63096;BME280;49184;55.596;37.770;2022-08-14T14:15:34;100000.19;;;27.87;39.35
63096;BME280;49184;55.596;37.770;2022-08-14T14:18:02;99986.69;;;27.64;40.40
63096;BME280;49184;55.596;37.770;2022-08-14T14:20:49;99984.38;;;27.55;41.45
63096;BME280;49184;55.596;37.770;2022-08-14T14:23:16;99998.41;;;27.55;41.01
63096;BME280;49184;55.596;37.770;2022-08-14T14:26:09;100002.66;;;27.74;40.24
63096;BME280;49184;55.596;37.770;2022-08-14T14:28:42;100001.03;;;27.80;40.07
63096;BME280;49184;55.596;37.770;2022-08-14T14:31:11;99949.09;;;27.51;39.15
63096;BME280;49184;55.596;37.770;2022-08-14T14:33:45;99987.44;;;27.79;40.71
63096;BME280;49184;55.596;37.770;2022-08-14T14:36:42;99995.50;;;27.70;39.28
63096;BME280;49184;55.596;37.770;2022-08-14T14:42:01;99991.91;;;27.66;39.30
63096;BME280;49184;55.596;37.770;2022-08-14T14:44:57;99941.63;;;27.30;41.92
63096;BME280;49184;55.596;37.770;2022-08-14T14:47:57;99997.28;;;27.46;40.70
63096;BME280;49184;55.596;37.770;2022-08-14T14:50:26;99955.34;;;27.13;39.93
63096;BME280;49184;55.596;37.770;2022-08-14T14:53:29;99903.06;;;26.67;40.09
63096;BME280;49184;55.596;37.770;2022-08-14T14:56:13;99983.41;;;27.10;40.66
63096;BME280;49184;55.596;37.770;2022-08-14T14:58:41;99986.25;;;27.03;41.44
63096;BME280;49184;55.596;37.770;2022-08-14T15:01:09;99980.69;;;26.96;41.73
63096;BME280;49184;55.596;37.770;2022-08-14T15:03:37;99981.13;;;26.87;42.18
63096;BME280;49184;55.596;37.770;2022-08-14T15:06:42;99905.97;;;26.35;42.17
63096;BME280;49184;55.596;37.770;2022-08-14T15:09:13;99926.81;;;26.34;43.81
63096;BME280;49184;55.596;37.770;2022-08-14T15:11:45;99978.41;;;26.62;43.72
63096;BME280;49184;55.596;37.770;2022-08-14T15:14:12;99962.81;;;26.46;43.01
63096;BME280;49184;55.596;37.770;2022-08-14T15:23:14;99930.50;;;26.06;44.49
63096;BME280;49184;55.596;37.770;2022-08-14T15:25:50;99923.28;;;25.94;47.38
63096;BME280;49184;55.596;37.770;2022-08-14T15:31:16;99941.31;;;25.86;50.19
63096;BME280;49184;55.596;37.770;2022-08-14T15:33:43;99938.91;;;25.74;50.22
63096;BME280;49184;55.596;37.770;2022-08-14T15:36:28;99906.50;;;25.48;49.76
63096;BME280;49184;55.596;37.770;2022-08-14T15:38:57;99944.09;;;25.72;50.26
63096;BME280;49184;55.596;37.770;2022-08-14T15:41:48;99932.50;;;25.52;50.83
63096;BME280;49184;55.596;37.770;2022-08-14T15:44:47;99993.34;;;25.87;50.83
63096;BME280;49184;55.596;37.770;2022-08-14T15:47:28;99992.13;;;25.88;50.30
63096;BME280;49184;55.596;37.770;2022-08-14T15:50:21;99944.88;;;25.58;51.08
63096;BME280;49184;55.596;37.770;2022-08-14T15:53:16;99992.53;;;25.90;51.43
63096;BME280;49184;55.596;37.770;2022-08-14T15:55:53;99940.09;;;25.55;51.32
63096;BME280;49184;55.596;37.770;2022-08-14T16:05:12;99933.28;;;25.38;53.78
63096;BME280;49184;55.596;37.770;2022-08-14T16:07:56;99982.50;;;25.68;53.73
63096;BME280;49184;55.596;37.770;2022-08-14T16:10:27;99957.69;;;25.45;54.04
63096;BME280;49184;55.596;37.770;2022-08-14T16:13:05;99970.47;;;25.46;54.28
63096;BME280;49184;55.596;37.770;2022-08-14T16:15:59;99974.47;;;25.41;54.56
63096;BME280;49184;55.596;37.770;2022-08-14T16:18:26;99972.88;;;25.40;54.65
63096;BME280;49184;55.596;37.770;2022-08-14T16:21:09;99970.88;;;25.41;55.18
63096;BME280;49184;55.596;37.770;2022-08-14T16:23:38;99996.88;;;25.48;55.51
63096;BME280;49184;55.596;37.770;2022-08-14T16:26:17;99981.28;;;25.40;55.57
63096;BME280;49184;55.596;37.770;2022-08-14T16:29:40;99965.28;;;25.30;54.63
63096;BME280;49184;55.596;37.770;2022-08-14T16:32:08;99983.28;;;25.43;53.52
63096;BME280;49184;55.596;37.770;2022-08-14T16:34:39;99992.06;;;25.49;51.40
63096;BME280;49184;55.596;37.770;2022-08-14T16:37:10;99994.50;;;25.47;51.03
63096;BME280;49184;55.596;37.770;2022-08-14T16:40:02;99992.88;;;25.42;49.89
63096;BME280;49184;55.596;37.770;2022-08-14T16:42:30;99973.63;;;25.23;49.95
63096;BME280;49184;55.596;37.770;2022-08-14T16:45:25;100001.25;;;25.31;50.16
63096;BME280;49184;55.596;37.770;2022-08-14T16:47:51;99971.56;;;25.05;50.52
63096;BME280;49184;55.596;37.770;2022-08-14T16:50:21;100003.59;;;25.19;50.68
63096;BME280;49184;55.596;37.770;2022-08-14T16:52:51;99962.72;;;24.89;49.42
63096;BME280;49184;55.596;37.770;2022-08-14T16:55:18;99979.13;;;24.94;49.01
63096;BME280;49184;55.596;37.770;2022-08-14T16:58:12;100003.91;;;25.03;47.64
63096;BME280;49184;55.596;37.770;2022-08-14T17:00:40;100003.09;;;24.99;47.90
63096;BME280;49184;55.596;37.770;2022-08-14T17:03:10;100003.88;;;24.92;48.34
63096;BME280;49184;55.596;37.770;2022-08-14T17:05:41;99991.09;;;24.84;48.58
63096;BME280;49184;55.596;37.770;2022-08-14T17:13:35;99997.69;;;24.44;52.94
63096;BME280;49184;55.596;37.770;2022-08-14T17:16:32;99977.13;;;24.18;53.97
63096;BME280;49184;55.596;37.770;2022-08-14T17:18:59;100019.13;;;24.36;54.21
63096;BME280;49184;55.596;37.770;2022-08-14T17:21:33;100026.72;;;24.35;54.32
63096;BME280;49184;55.596;37.770;2022-08-14T17:24:06;100023.88;;;24.25;54.50
63096;BME280;49184;55.596;37.770;2022-08-14T17:26:34;100006.97;;;24.10;55.31
63096;BME280;49184;55.596;37.770;2022-08-14T17:29:10;100026.91;;;24.05;55.46
63096;BME280;49184;55.596;37.770;2022-08-14T17:31:40;100037.31;;;24.08;55.75
63096;BME280;49184;55.596;37.770;2022-08-14T17:34:08;100027.16;;;23.89;54.73
63096;BME280;49184;55.596;37.770;2022-08-14T17:36:36;100029.59;;;23.91;55.15
63096;BME280;49184;55.596;37.770;2022-08-14T17:39:10;100043.97;;;23.97;53.79
63096;BME280;49184;55.596;37.770;2022-08-14T17:41:49;100049.16;;;23.95;53.12
63096;BME280;49184;55.596;37.770;2022-08-14T17:44:19;100044.75;;;23.94;52.96
63096;BME280;49184;55.596;37.770;2022-08-14T17:47:09;100037.50;;;23.85;50.35
63096;BME280;49184;55.596;37.770;2022-08-14T17:49:51;100003.00;;;23.67;49.42
63096;BME280;49184;55.596;37.770;2022-08-14T17:52:27;100031.13;;;23.85;49.58
63096;BME280;49184;55.596;37.770;2022-08-14T17:55:03;100047.13;;;23.88;49.26
63096;BME280;49184;55.596;37.770;2022-08-14T17:57:30;100038.31;;;23.86;49.53
63096;BME280;49184;55.596;37.770;2022-08-14T17:59:59;100021.44;;;23.72;48.48
63096;BME280;49184;55.596;37.770;2022-08-14T18:02:31;100029.84;;;23.75;47.95
63096;BME280;49184;55.596;37.770;2022-08-14T18:04:59;99985.31;;;23.49;48.92
63096;BME280;49184;55.596;37.770;2022-08-14T18:07:53;100038.28;;;23.82;48.48
63096;BME280;49184;55.596;37.770;2022-08-14T18:10:20;100012.94;;;23.61;48.60
63096;BME280;49184;55.596;37.770;2022-08-14T18:16:04;100016.47;;;23.54;47.82
63096;BME280;49184;55.596;37.770;2022-08-14T18:19:01;99952.63;;;23.08;47.46
63096;BME280;49184;55.596;37.770;2022-08-14T18:21:29;99970.25;;;23.19;48.02
63096;BME280;49184;55.596;37.770;2022-08-14T18:23:57;100034.88;;;23.62;47.43
63096;BME280;49184;55.596;37.770;2022-08-14T18:26:24;100042.47;;;23.65;47.71
63096;BME280;49184;55.596;37.770;2022-08-14T18:28:53;100003.94;;;23.41;48.04
63096;BME280;49184;55.596;37.770;2022-08-14T18:34:06;100025.59;;;23.51;47.47
63096;BME280;49184;55.596;37.770;2022-08-14T18:36:52;100035.63;;;23.59;47.69
63096;BME280;49184;55.596;37.770;2022-08-14T18:39:35;100035.22;;;23.57;47.63
63096;BME280;49184;55.596;37.770;2022-08-14T19:03:05;100039.88;;;23.46;46.21
63096;BME280;49184;55.596;37.770;2022-08-14T19:08:39;100039.09;;;23.45;46.65
63096;BME280;49184;55.596;37.770;2022-08-14T19:14:13;99974.69;;;22.90;46.86
63096;BME280;49184;55.596;37.770;2022-08-14T19:16:42;100049.75;;;23.36;46.91
63096;BME280;49184;55.596;37.770;2022-08-14T19:19:11;100013.63;;;23.13;47.03
63096;BME280;49184;55.596;37.770;2022-08-14T19:21:52;100053.25;;;23.30;47.65
63096;BME280;49184;55.596;37.770;2022-08-14T19:27:18;100023.13;;;23.09;47.29
63096;BME280;49184;55.596;37.770;2022-08-14T19:32:45;100022.22;;;23.01;48.42
63096;BME280;49184;55.596;37.770;2022-08-14T19:45:13;100057.41;;;23.09;47.77
63096;BME280;49184;55.596;37.770;2022-08-14T19:48:12;100054.97;;;23.08;48.17
63096;BME280;49184;55.596;37.770;2022-08-14T19:50:48;99974.97;;;22.51;48.49
63096;BME280;49184;55.596;37.770;2022-08-14T19:54:06;100058.13;;;23.03;48.02
63096;BME280;49184;55.596;37.770;2022-08-14T19:57:04;99970.53;;;22.47;48.28
63096;BME280;49184;55.596;37.770;2022-08-14T20:00:33;99999.00;;;22.60;49.02
63096;BME280;49184;55.596;37.770;2022-08-14T20:04:10;99992.75;;;22.40;51.22
63096;BME280;49184;55.596;37.770;2022-08-14T20:08:05;100039.78;;;22.71;49.68
63096;BME280;49184;55.596;37.770;2022-08-14T20:10:37;99991.56;;;22.41;51.06
63096;BME280;49184;55.596;37.770;2022-08-14T20:13:26;100057.75;;;22.78;50.26
63096;BME280;49184;55.596;37.770;2022-08-14T20:22:03;100060.72;;;22.62;52.64
63096;BME280;49184;55.596;37.770;2022-08-14T20:24:54;100002.44;;;22.23;53.69
63096;BME280;49184;55.596;37.770;2022-08-14T20:27:49;100062.28;;;22.59;51.72
63096;BME280;49184;55.596;37.770;2022-08-14T20:31:09;100027.78;;;22.41;51.73
63096;BME280;49184;55.596;37.770;2022-08-14T20:47:59;100008.47;;;22.02;52.78
63096;BME280;49184;55.596;37.770;2022-08-14T20:50:34;100009.63;;;22.01;52.60
63096;BME280;49184;55.596;37.770;2022-08-14T20:53:33;99974.66;;;21.77;52.30
63096;BME280;49184;55.596;37.770;2022-08-14T20:56:36;100071.50;;;22.37;52.92
63096;BME280;49184;55.596;37.770;2022-08-14T21:13:43;100048.66;;;21.81;54.84
63096;BME280;49184;55.596;37.770;2022-08-14T21:16:18;99986.69;;;21.39;55.05
63096;BME280;49184;55.596;37.770;2022-08-14T21:22:58;100078.19;;;21.86;56.69
63096;BME280;49184;55.596;37.770;2022-08-14T21:27:05;100085.91;;;21.73;58.76
63096;BME280;49184;55.596;37.770;2022-08-14T21:32:44;100007.88;;;21.04;60.39
63096;BME280;49184;55.596;37.770;2022-08-14T21:35:38;100085.00;;;21.46;60.28